Ashern, Canada
Current Conditions -  °F | °C
As of 11:00 PM on Tuesday 21 Oct 2014 (Local Time) from CYDN Reporting Station
Few Clouds Few Clouds  
Wind Chill: 52°   Ceiling: Unl
Heat Index: 52°   Visibility: 9mi
Dew Point: 45°   Wind: 10mph
Humidity: 76%   Direction: 140°SE
Pressure: 29.65"   Gusts: NA
Location:  51.18°N, 98.33°W
Report Text: CYDN 220400Z AUTO 14009KT 9SM FEW160 11/07 A2965 RMK SLP043 DENSITY ALT 1100FT
Loading
Personal Weather Stations






























Interactive Weather Map New forecast layout! Learn more

10-Day Weather Forecast

Advertisements
Track Severe Weather on mobile